Time;durP1;ratioP1;P1;durP2;ratioP2;P2;SDS_P1;SDS_P2;PMS_P1;PMS_P2;Temp;Humidity;BMP_temperature;BMP_pressure;BME280_temperature;BME280_humidity;BME280_pressure;Samples;Min_cycle;Max_cycle;Signal;HPM_P1;HPM_P2
2022/05/28 00:01:51;;;;;;;7.03;4.05;;;8.80;92.60;;;;;;5053065;28;20025;-67
2022/05/28 00:04:19;;;;;;;8.65;4.60;;;8.80;90.90;;;;;;5055040;28;20372;-67
2022/05/28 00:06:48;;;;;;;8.27;4.43;;;9.00;89.20;;;;;;5052957;28;20033;-67
2022/05/28 00:09:14;;;;;;;8.15;4.85;;;9.20;90.20;;;;;;5055629;28;20413;-67
2022/05/28 00:11:41;;;;;;;8.55;4.70;;;9.40;89.20;;;;;;5054743;28;20078;-67
2022/05/28 00:14:08;;;;;;;6.85;4.68;;;9.50;89.20;;;;;;5056546;28;20143;-67
2022/05/28 00:16:36;;;;;;;8.90;5.47;;;9.70;89.80;;;;;;5055389;28;20017;-66
2022/05/28 00:19:03;;;;;;;6.57;4.50;;;9.60;92.50;;;;;;5055754;28;20028;-66
2022/05/28 00:21:29;;;;;;;7.75;4.43;;;9.60;91.40;;;;;;5056783;28;20032;-66
2022/05/28 00:23:55;;;;;;;8.52;4.15;;;9.70;91.40;;;;;;5056865;28;20310;-66
2022/05/28 00:26:20;;;;;;;8.38;4.50;;;9.80;91.40;;;;;;5054198;28;20036;-66
2022/05/28 00:28:46;;;;;;;8.30;4.60;;;9.90;91.90;;;;;;5056381;28;20033;-66
2022/05/28 00:31:13;;;;;;;8.85;5.22;;;10.00;92.10;;;;;;5055070;28;20108;-68
2022/05/28 00:33:39;;;;;;;7.20;4.55;;;10.10;93.30;;;;;;5056843;28;20025;-68
2022/05/28 00:36:08;;;;;;;7.40;4.82;;;10.10;92.80;;;;;;5054325;28;20104;-67
2022/05/28 00:38:34;;;;;;;8.70;4.68;;;10.30;93.40;;;;;;5055816;28;20033;-67
2022/05/28 00:41:00;;;;;;;8.48;4.88;;;10.30;93.90;;;;;;5053553;28;20078;-67
2022/05/28 00:43:28;;;;;;;8.32;4.57;;;10.40;94.00;;;;;;5056329;28;20024;-67
2022/05/28 00:46:00;;;;;;;7.03;4.78;;;10.60;94.40;;;;;;5055952;28;20024;-67
2022/05/28 00:48:30;;;;;;;6.80;4.15;;;10.60;95.00;;;;;;5054852;28;20295;-67
2022/05/28 00:51:01;;;;;;;8.75;4.20;;;10.70;95.10;;;;;;5055686;28;20410;-67
2022/05/28 00:53:27;;;;;;;6.63;4.43;;;10.80;95.40;;;;;;5056442;28;20028;-67
2022/05/28 00:55:53;;;;;;;8.93;4.20;;;10.90;95.60;;;;;;5053710;28;20063;-67
2022/05/28 00:58:19;;;;;;;8.27;4.97;;;11.00;95.60;;;;;;5055358;28;20382;-67
2022/05/28 01:00:47;;;;;;;7.30;4.05;;;11.10;96.30;;;;;;5054804;28;20035;-66
2022/05/28 01:04:07;;;;;;;8.70;5.38;;;11.20;96.80;;;;;;5055615;28;20343;-67
2022/05/28 01:06:59;;;;;;;8.70;5.60;;;11.10;96.90;;;;;;5032618;28;20038;-67
2022/05/28 01:09:30;;;;;;;7.57;5.13;;;10.90;96.90;;;;;;5050113;28;20045;-67
2022/05/28 01:12:05;;;;;;;10.75;5.25;;;10.80;97.20;;;;;;5052119;28;20487;-67
2022/05/28 01:14:48;;;;;;;9.80;5.20;;;10.80;96.80;;;;;;5053551;28;20033;-67
2022/05/28 01:17:27;;;;;;;10.65;5.35;;;10.70;97.50;;;;;;5053506;28;20112;-67
2022/05/28 01:20:12;;;;;;;9.82;5.57;;;10.70;97.50;;;;;;5052613;28;20108;-67
2022/05/28 01:22:55;;;;;;;11.95;5.63;;;10.60;97.30;;;;;;5054154;28;20094;-68
2022/05/28 01:26:05;;;;;;;11.13;5.60;;;10.60;97.30;;;;;;5068330;28;20044;-67
2022/05/28 01:28:39;;;;;;;13.07;5.68;;;10.50;97.10;;;;;;5050527;28;20052;-67
2022/05/28 01:31:06;;;;;;;15.40;5.75;;;10.50;97.10;;;;;;5053704;28;20029;-67
2022/05/28 01:33:35;;;;;;;11.80;5.22;;;10.50;98.00;;;;;;5053363;28;20477;-67
2022/05/28 01:36:04;;;;;;;11.05;4.97;;;10.50;98.00;;;;;;5052624;28;20037;-67
2022/05/28 01:38:31;;;;;;;12.52;5.70;;;10.50;98.00;;;;;;5053103;28;20045;-67
2022/05/28 01:40:58;;;;;;;12.48;5.13;;;10.50;97.80;;;;;;5052079;28;20017;-67
2022/05/28 01:43:28;;;;;;;12.15;5.00;;;10.50;98.00;;;;;;5055998;28;20283;-67
2022/05/28 01:45:55;;;;;;;14.23;5.10;;;10.50;98.00;;;;;;5053587;28;20411;-67
2022/05/28 01:48:22;;;;;;;11.75;5.35;;;10.50;98.00;;;;;;5051155;28;20082;-67
2022/05/28 01:50:51;;;;;;;12.90;4.82;;;10.40;98.00;;;;;;5054436;28;20033;-67
2022/05/28 01:56:05;;;;;;;14.25;5.82;;;10.40;98.00;;;;;;5051092;28;20047;-67
2022/05/28 01:58:31;;;;;;;15.45;5.93;;;10.40;98.00;;;;;;5052895;28;20036;-67
2022/05/28 02:00:59;;;;;;;10.05;5.10;;;10.40;98.00;;;;;;5052325;28;20039;-67
2022/05/28 02:03:31;;;;;;;12.10;4.57;;;10.40;98.00;;;;;;5053797;28;20033;-67
2022/05/28 02:05:56;;;;;;;9.77;4.43;;;10.40;97.90;;;;;;5052543;28;20059;-67
2022/05/28 02:08:22;;;;;;;10.50;4.68;;;10.40;98.00;;;;;;5052505;28;20057;-67
2022/05/28 02:10:57;;;;;;;10.80;5.22;;;10.40;98.00;;;;;;5047906;28;20021;-67
2022/05/28 02:13:34;;;;;;;13.90;4.95;;;10.30;98.00;;;;;;5055016;28;20060;-67
2022/05/28 02:16:11;;;;;;;8.57;4.07;;;10.40;97.50;;;;;;5045403;28;20032;-67
2022/05/28 02:19:01;;;;;;;13.27;4.50;;;10.30;97.50;;;;;;5052399;28;20025;-67
2022/05/28 02:21:30;;;;;;;13.25;4.97;;;10.40;97.80;;;;;;5048593;28;20033;-67
2022/05/28 02:24:02;;;;;;;12.93;4.60;;;10.40;97.60;;;;;;5054961;28;20021;-67
2022/05/28 02:26:37;;;;;;;12.70;4.80;;;10.40;97.00;;;;;;5055104;28;20017;-67
2022/05/28 02:29:03;;;;;;;12.05;4.50;;;10.40;96.60;;;;;;5053398;28;20017;-67
2022/05/28 02:31:32;;;;;;;14.85;4.15;;;10.30;96.70;;;;;;5056985;28;20039;-67
2022/05/28 02:33:58;;;;;;;12.73;4.57;;;10.40;96.30;;;;;;5055925;28;20016;-67
2022/05/28 02:36:25;;;;;;;12.35;4.43;;;10.40;96.60;;;;;;5054808;28;20021;-67
2022/05/28 02:38:51;;;;;;;12.20;4.38;;;10.30;96.30;;;;;;5056167;28;20041;-67
2022/05/28 02:41:18;;;;;;;10.80;4.57;;;10.30;96.50;;;;;;5056110;28;20033;-67
2022/05/28 02:43:44;;;;;;;15.57;4.43;;;10.30;96.80;;;;;;5056833;28;20017;-67
2022/05/28 02:46:10;;;;;;;11.68;3.92;;;10.30;96.80;;;;;;5057094;28;20291;-67
2022/05/28 02:48:38;;;;;;;12.02;4.18;;;10.30;97.00;;;;;;5056830;28;20031;-67
2022/05/28 02:51:05;;;;;;;11.80;4.78;;;10.20;96.80;;;;;;5055438;28;20067;-68
2022/05/28 02:53:31;;;;;;;15.05;4.78;;;10.20;97.00;;;;;;5054710;28;20047;-67
2022/05/28 02:55:57;;;;;;;10.43;4.10;;;10.20;97.10;;;;;;5055631;28;20029;-67
2022/05/28 02:58:23;;;;;;;16.85;4.50;;;10.20;97.00;;;;;;5055753;28;20075;-67
2022/05/28 03:00:48;;;;;;;12.52;4.65;;;10.10;97.10;;;;;;5054541;28;20029;-67
2022/05/28 03:03:19;;;;;;;14.73;4.65;;;10.20;97.20;;;;;;5056820;28;20025;-68
2022/05/28 03:05:48;;;;;;;9.27;4.35;;;10.10;97.30;;;;;;5054524;28;20527;-68
2022/05/28 03:08:17;;;;;;;14.55;4.30;;;10.10;97.40;;;;;;5052668;28;20395;-67
2022/05/28 03:10:44;;;;;;;9.95;4.05;;;10.10;97.40;;;;;;5052673;28;20488;-67
2022/05/28 03:13:10;;;;;;;10.95;4.20;;;10.10;97.50;;;;;;5055225;28;20059;-66
2022/05/28 03:15:36;;;;;;;10.95;4.55;;;10.10;97.50;;;;;;5051762;28;20064;-67
2022/05/28 03:18:01;;;;;;;11.07;4.07;;;10.00;97.50;;;;;;5055813;28;20419;-67
2022/05/28 03:20:29;;;;;;;10.98;3.80;;;10.00;97.40;;;;;;5053522;28;20016;-65
2022/05/28 03:22:55;;;;;;;11.10;4.28;;;10.00;97.50;;;;;;5054702;28;20367;-66
2022/05/28 03:25:20;;;;;;;12.30;4.75;;;10.00;97.60;;;;;;5052439;28;20021;-67
2022/05/28 03:27:46;;;;;;;14.35;5.10;;;9.90;97.30;;;;;;5053867;28;20029;-68
2022/05/28 03:30:12;;;;;;;13.75;4.15;;;9.90;97.20;;;;;;5053852;28;20025;-67
2022/05/28 03:32:38;;;;;;;14.32;5.15;;;9.80;97.10;;;;;;5055569;28;20036;-66
2022/05/28 03:35:05;;;;;;;11.60;3.97;;;9.70;97.30;;;;;;5052670;28;20040;-67
2022/05/28 03:37:31;;;;;;;13.95;4.18;;;9.70;97.40;;;;;;5052666;28;20084;-66
2022/05/28 03:39:56;;;;;;;15.68;3.72;;;9.60;97.20;;;;;;5053725;28;20415;-67
2022/05/28 03:42:22;;;;;;;14.13;4.07;;;9.60;96.80;;;;;;5055127;28;20021;-66
2022/05/28 03:44:48;;;;;;;13.25;4.53;;;9.60;96.70;;;;;;5055422;28;20155;-67
2022/05/28 03:47:14;;;;;;;12.85;4.68;;;9.60;96.90;;;;;;5053030;28;20028;-66
2022/05/28 03:49:42;;;;;;;13.25;4.57;;;9.60;97.00;;;;;;5052374;28;20037;-67
2022/05/28 03:52:08;;;;;;;9.77;3.63;;;9.60;97.10;;;;;;5053913;28;20021;-67
2022/05/28 03:54:34;;;;;;;14.05;4.07;;;9.50;97.10;;;;;;5054665;28;20032;-67
2022/05/28 03:57:05;;;;;;;14.07;3.67;;;9.40;97.10;;;;;;5050440;28;20037;-66
2022/05/28 03:59:34;;;;;;;15.15;3.85;;;9.30;97.00;;;;;;5047021;28;20060;-66
2022/05/28 04:02:00;;;;;;;11.90;4.55;;;9.20;97.00;;;;;;5054518;28;20424;-66
2022/05/28 04:04:26;;;;;;;15.15;4.22;;;9.20;97.00;;;;;;5051096;28;20025;-67
2022/05/28 04:06:52;;;;;;;10.25;3.53;;;9.10;97.40;;;;;;5053477;28;20017;-67
2022/05/28 04:09:18;;;;;;;13.27;4.40;;;9.10;97.00;;;;;;5035323;28;20437;-66
2022/05/28 04:11:44;;;;;;;14.13;4.60;;;9.10;97.10;;;;;;5052981;28;20780;-67
2022/05/28 04:14:10;;;;;;;12.73;4.13;;;9.10;96.90;;;;;;5052173;28;20372;-66
2022/05/28 04:16:35;;;;;;;17.20;3.75;;;9.10;97.10;;;;;;5052267;28;20025;-66
2022/05/28 04:19:01;;;;;;;14.23;4.10;;;9.10;96.90;;;;;;5049274;28;20025;-66
2022/05/28 04:21:27;;;;;;;10.88;4.10;;;9.20;96.60;;;;;;5050277;28;20044;-66
2022/05/28 04:23:52;;;;;;;12.20;4.03;;;9.20;96.50;;;;;;5052890;28;20035;-67
2022/05/28 04:26:18;;;;;;;13.60;3.60;;;9.30;96.40;;;;;;5051632;28;20028;-67
2022/05/28 04:28:43;;;;;;;12.23;3.58;;;9.30;96.40;;;;;;5052294;28;20040;-67
2022/05/28 04:31:09;;;;;;;12.77;3.63;;;9.40;95.40;;;;;;5053264;28;20397;-66
2022/05/28 04:33:35;;;;;;;15.23;3.72;;;9.40;94.40;;;;;;5053654;28;20107;-67
2022/05/28 04:36:00;;;;;;;10.48;2.95;;;9.50;94.60;;;;;;5048128;28;20043;-66
2022/05/28 04:38:26;;;;;;;14.65;3.63;;;9.60;93.40;;;;;;5048208;28;20053;-66
2022/05/28 04:40:52;;;;;;;18.95;4.78;;;9.60;93.80;;;;;;5050912;28;20021;-67
2022/05/28 04:43:20;;;;;;;12.02;4.25;;;9.60;93.90;;;;;;5050397;28;20049;-66
2022/05/28 04:45:46;;;;;;;7.93;2.80;;;9.50;93.80;;;;;;5045428;28;20028;-66
2022/05/28 04:48:12;;;;;;;16.60;3.75;;;9.50;93.70;;;;;;5048719;28;20025;-66
2022/05/28 04:50:38;;;;;;;12.30;3.40;;;9.50;93.30;;;;;;5053174;28;20323;-66
2022/05/28 04:53:04;;;;;;;10.35;3.15;;;9.40;93.30;;;;;;5052215;28;20701;-66
2022/05/28 04:55:30;;;;;;;13.23;2.85;;;9.40;92.80;;;;;;5050570;28;20040;-67
2022/05/28 04:57:56;;;;;;;12.23;3.40;;;9.60;92.60;;;;;;5051629;28;20036;-66
2022/05/28 05:00:23;;;;;;;13.07;3.33;;;9.60;92.30;;;;;;5052416;28;20024;-66
2022/05/28 05:02:49;;;;;;;14.60;3.28;;;9.80;91.70;;;;;;5054947;28;20029;-66
2022/05/28 05:05:15;;;;;;;11.57;3.53;;;9.90;91.40;;;;;;5052622;28;20077;-66
2022/05/28 05:07:40;;;;;;;11.93;2.90;;;9.90;90.80;;;;;;5053853;28;20065;-67
2022/05/28 05:10:07;;;;;;;12.73;3.47;;;9.90;90.30;;;;;;5053921;28;20035;-66
2022/05/28 05:12:32;;;;;;;13.07;3.40;;;9.80;90.20;;;;;;5054258;28;20053;-66
2022/05/28 05:14:58;;;;;;;13.93;3.30;;;9.70;90.80;;;;;;5052475;28;20113;-67
2022/05/28 05:17:23;;;;;;;13.27;3.42;;;9.60;91.10;;;;;;5048664;28;20436;-66
2022/05/28 05:19:51;;;;;;;16.52;3.40;;;9.50;91.70;;;;;;5051466;28;20021;-66
2022/05/28 05:22:16;;;;;;;16.52;3.40;;;9.50;91.70;;;;;;5052277;28;20099;-67
2022/05/28 05:24:42;;;;;;;13.10;3.83;;;9.60;91.90;;;;;;5053098;28;20059;-67
2022/05/28 05:27:09;;;;;;;11.63;2.63;;;9.50;92.00;;;;;;5052649;28;20044;-67
2022/05/28 05:29:34;;;;;;;16.40;3.70;;;9.60;92.20;;;;;;5051647;28;20021;-66
2022/05/28 05:32:00;;;;;;;13.38;3.00;;;9.60;92.40;;;;;;5049808;28;20484;-67
2022/05/28 05:34:25;;;;;;;16.45;2.97;;;9.70;91.80;;;;;;5050954;28;20156;-67
2022/05/28 05:36:51;;;;;;;15.80;3.50;;;9.70;91.70;;;;;;5050744;28;20045;-67
2022/05/28 05:39:17;;;;;;;13.27;3.08;;;9.80;91.20;;;;;;5051486;28;20028;-67
2022/05/28 05:41:43;;;;;;;11.88;3.30;;;9.90;90.50;;;;;;5050710;28;20091;-67
2022/05/28 05:44:10;;;;;;;17.10;3.47;;;9.80;90.70;;;;;;5048910;28;20329;-67
2022/05/28 05:46:40;;;;;;;13.88;3.35;;;9.60;91.00;;;;;;5051980;28;20018;-66
2022/05/28 05:49:06;;;;;;;9.38;2.90;;;9.60;91.20;;;;;;5048332;28;20410;-67
2022/05/28 05:51:34;;;;;;;15.25;3.55;;;9.60;91.50;;;;;;5052397;28;20036;-67
2022/05/28 05:54:00;;;;;;;12.85;3.33;;;9.60;91.10;;;;;;5051037;28;20044;-67
2022/05/28 05:56:25;;;;;;;9.75;3.50;;;9.70;91.30;;;;;;5050226;28;20056;-67
2022/05/28 05:58:51;;;;;;;13.05;3.45;;;10.00;91.40;;;;;;5053044;28;20067;-67
2022/05/28 06:01:16;;;;;;;15.25;4.18;;;10.20;89.70;;;;;;5054261;28;20033;-66
2022/05/28 06:03:44;;;;;;;10.02;3.20;;;10.70;88.00;;;;;;5055770;28;20413;-67
2022/05/28 06:06:13;;;;;;;15.65;3.17;;;11.20;87.30;;;;;;5054036;28;20024;-67
2022/05/28 06:08:39;;;;;;;10.95;2.70;;;11.70;83.70;;;;;;5059324;28;20025;-67
2022/05/28 06:11:05;;;;;;;11.10;3.75;;;11.80;83.10;;;;;;5055061;28;20037;-66
2022/05/28 06:13:31;;;;;;;10.75;3.03;;;11.80;82.20;;;;;;5055030;28;20033;-66
2022/05/28 06:15:56;;;;;;;10.43;2.70;;;11.60;82.10;;;;;;5056924;28;20032;-66
2022/05/28 06:18:22;;;;;;;10.70;3.00;;;11.30;82.80;;;;;;5056919;28;20033;-66
2022/05/28 06:20:49;;;;;;;10.25;2.80;;;10.90;84.80;;;;;;5056102;28;20032;-68
2022/05/28 06:23:19;;;;;;;14.10;2.13;;;10.80;84.50;;;;;;5056066;28;20075;-68
2022/05/28 06:25:45;;;;;;;15.40;2.38;;;10.80;83.70;;;;;;4963640;28;20327;-67
2022/05/28 06:28:15;;;;;;;7.78;2.10;;;10.80;83.60;;;;;;5057710;28;20033;-67
2022/05/28 06:30:43;;;;;;;8.48;2.42;;;11.10;83.80;;;;;;5056037;28;20047;-67
2022/05/28 06:33:09;;;;;;;9.90;3.05;;;11.20;83.10;;;;;;5057041;28;20032;-67
2022/05/28 06:35:35;;;;;;;8.63;2.45;;;10.90;83.10;;;;;;5054841;28;20043;-67
2022/05/28 06:38:00;;;;;;;10.27;2.75;;;10.70;84.00;;;;;;5055640;28;20090;-66
2022/05/28 06:40:27;;;;;;;12.88;3.28;;;10.50;84.80;;;;;;5054514;28;20321;-67
2022/05/28 06:42:56;;;;;;;18.27;2.90;;;10.30;85.60;;;;;;5053284;28;20718;-66
2022/05/28 06:45:22;;;;;;;8.55;2.25;;;10.30;86.50;;;;;;5056096;28;20040;-67
2022/05/28 06:47:48;;;;;;;13.25;3.40;;;10.50;87.00;;;;;;5056227;28;20024;-66
2022/05/28 06:53:00;;;;;;;10.50;2.63;;;10.90;86.50;;;;;;5043584;28;20036;-66
2022/05/28 06:55:27;;;;;;;11.75;3.22;;;11.20;84.90;;;;;;5043937;28;20028;-66
2022/05/28 06:57:52;;;;;;;11.15;3.17;;;11.10;84.60;;;;;;5054760;28;20056;-67
2022/05/28 07:00:19;;;;;;;11.13;2.72;;;11.00;84.60;;;;;;5050694;28;20063;-66
2022/05/28 07:02:44;;;;;;;10.30;2.72;;;11.10;85.40;;;;;;5038146;28;20029;-67
2022/05/28 07:05:14;;;;;;;9.95;2.67;;;11.10;83.70;;;;;;5034262;28;20031;-66
2022/05/28 07:07:42;;;;;;;10.73;2.63;;;11.20;84.40;;;;;;5034363;28;20032;-66
2022/05/28 07:10:08;;;;;;;7.63;2.45;;;11.50;84.10;;;;;;5032738;28;20037;-66
2022/05/28 07:12:34;;;;;;;7.90;2.03;;;11.60;82.40;;;;;;5034466;28;20024;-67
2022/05/28 07:15:00;;;;;;;8.93;2.10;;;11.70;82.00;;;;;;5035550;28;20029;-67
2022/05/28 07:17:25;;;;;;;9.65;2.55;;;11.80;81.00;;;;;;5034691;28;20036;-66
2022/05/28 07:19:51;;;;;;;6.78;2.13;;;11.90;80.40;;;;;;5041364;28;20032;-66
2022/05/28 07:22:20;;;;;;;8.45;2.38;;;11.80;80.10;;;;;;5046590;28;20013;-66
2022/05/28 07:24:45;;;;;;;10.05;2.70;;;11.90;79.60;;;;;;5035947;28;20422;-66
2022/05/28 07:27:14;;;;;;;8.15;2.05;;;12.30;79.00;;;;;;5033684;28;20044;-66
2022/05/28 07:29:40;;;;;;;10.85;2.30;;;13.00;76.30;;;;;;5049527;28;20108;-67
2022/05/28 07:32:07;;;;;;;7.10;2.10;;;13.90;75.40;;;;;;5056662;28;20031;-66
2022/05/28 07:34:33;;;;;;;6.68;2.00;;;15.30;72.20;;;;;;5044201;28;20161;-66
2022/05/28 07:36:59;;;;;;;8.75;1.60;;;16.40;68.50;;;;;;5034644;28;20061;-67
2022/05/28 07:39:25;;;;;;;7.47;1.80;;;16.90;66.50;;;;;;5033228;28;20132;-67
2022/05/28 07:41:51;;;;;;;7.35;2.17;;;16.50;66.10;;;;;;5033551;28;20029;-67
2022/05/28 07:44:19;;;;;;;9.40;2.08;;;16.50;68.20;;;;;;5034011;28;20689;-67
2022/05/28 07:46:45;;;;;;;8.93;2.03;;;17.20;66.50;;;;;;5035630;28;20099;-67
2022/05/28 07:49:11;;;;;;;10.50;2.20;;;17.80;64.40;;;;;;5035615;28;20041;-66
2022/05/28 07:51:37;;;;;;;7.57;2.17;;;17.40;65.00;;;;;;5044855;28;20059;-67
2022/05/28 07:54:04;;;;;;;7.20;1.70;;;17.60;64.80;;;;;;5056106;28;20116;-67
2022/05/28 07:56:30;;;;;;;7.95;1.98;;;18.20;64.20;;;;;;5054908;28;20025;-67
2022/05/28 07:58:57;;;;;;;8.40;1.90;;;18.60;63.50;;;;;;5051426;28;20048;-66
2022/05/28 08:01:25;;;;;;;10.18;2.28;;;17.00;63.90;;;;;;5056541;28;20075;-67
2022/05/28 08:03:51;;;;;;;10.77;2.55;;;15.50;68.50;;;;;;5045869;28;20033;-66
2022/05/28 08:06:18;;;;;;;7.28;1.98;;;16.10;69.00;;;;;;5034365;28;20025;-66
2022/05/28 08:08:44;;;;;;;8.45;2.05;;;17.50;65.50;;;;;;5039200;28;20032;-66
2022/05/28 08:11:10;;;;;;;10.57;1.92;;;17.70;64.20;;;;;;5035774;28;21172;-67
2022/05/28 08:13:36;;;;;;;8.50;2.10;;;16.80;66.00;;;;;;5033675;28;20041;-67
2022/05/28 08:16:03;;;;;;;7.07;2.20;;;17.20;66.70;;;;;;5058037;28;20028;-66
2022/05/28 08:18:29;;;;;;;10.75;2.75;;;17.60;64.20;;;;;;5054979;28;20428;-67
2022/05/28 08:23:42;;;;;;;6.00;1.70;;;17.20;65.50;;;;;;5051946;28;20111;-66
2022/05/28 08:26:12;;;;;;;6.57;1.40;;;17.30;66.10;;;;;;5045942;28;20049;-66
2022/05/28 08:28:42;;;;;;;10.23;2.10;;;17.10;65.10;;;;;;5036771;28;20032;-66
2022/05/28 08:31:09;;;;;;;5.00;1.70;;;16.50;67.60;;;;;;5041234;28;20121;-67
2022/05/28 08:33:35;;;;;;;5.57;2.00;;;16.60;66.10;;;;;;5033296;28;20031;-66
2022/05/28 08:36:00;;;;;;;6.18;1.92;;;16.00;67.30;;;;;;5033614;28;20032;-67
2022/05/28 08:38:27;;;;;;;5.10;1.70;;;15.60;67.70;;;;;;5037387;28;20029;-66
2022/05/28 08:41:08;;;;;;;5.15;1.60;;;14.80;66.40;;;;;;5050834;28;20028;-67
2022/05/28 08:43:40;;;;;;;3.97;1.63;;;14.80;67.40;;;;;;5053526;28;20071;-67
2022/05/28 08:46:10;;;;;;;5.65;1.48;;;15.70;66.10;;;;;;5054317;28;20029;-66
2022/05/28 08:48:53;;;;;;;7.30;1.30;;;15.80;64.70;;;;;;5053409;28;20052;-66
2022/05/28 08:51:48;;;;;;;5.97;1.95;;;15.20;63.60;;;;;;5053726;28;20025;-66
2022/05/28 08:54:19;;;;;;;10.20;2.03;;;14.70;64.30;;;;;;5049558;28;20065;-65
2022/05/28 08:56:47;;;;;;;8.43;1.35;;;15.30;65.90;;;;;;5052989;28;20029;-66
2022/05/28 08:59:19;;;;;;;4.75;1.30;;;16.60;63.20;;;;;;5052328;28;20071;-67
2022/05/28 09:01:45;;;;;;;5.85;1.20;;;17.40;61.10;;;;;;5052453;28;20040;-67
2022/05/28 09:04:24;;;;;;;5.00;1.30;;;17.90;59.90;;;;;;5054233;28;20017;-66
2022/05/28 09:06:53;;;;;;;4.38;1.33;;;18.50;59.50;;;;;;5053409;28;20017;-66
2022/05/28 09:09:48;;;;;;;3.15;1.00;;;18.70;57.00;;;;;;5053693;28;20025;-65
2022/05/28 09:12:39;;;;;;;6.50;1.23;;;17.70;60.20;;;;;;5051583;28;20410;-66
2022/05/28 09:15:05;;;;;;;5.43;1.48;;;18.10;61.50;;;;;;5054455;28;20033;-67
2022/05/28 09:17:39;;;;;;;4.40;1.20;;;19.40;59.80;;;;;;5053519;28;20032;-65
2022/05/28 09:20:11;;;;;;;7.10;1.73;;;20.40;58.50;;;;;;5053925;28;20083;-67
2022/05/28 09:22:37;;;;;;;3.65;0.90;;;20.80;53.80;;;;;;5054266;28;20083;-67
2022/05/28 09:25:03;;;;;;;3.03;1.00;;;20.00;52.30;;;;;;5047222;28;20037;-66
2022/05/28 09:27:54;;;;;;;2.78;0.80;;;18.90;53.50;;;;;;5053076;28;20013;-67
2022/05/28 09:30:57;;;;;;;3.85;0.88;;;19.20;55.30;;;;;;5051737;28;20029;-67
2022/05/28 09:33:55;;;;;;;3.17;1.05;;;20.40;52.80;;;;;;5054244;28;20032;-66
2022/05/28 09:36:48;;;;;;;7.28;1.42;;;21.10;52.00;;;;;;5051179;28;20025;-65
2022/05/28 09:39:44;;;;;;;4.95;1.30;;;21.20;52.10;;;;;;5053301;28;20033;-65
2022/05/28 09:42:38;;;;;;;5.00;0.90;;;21.10;52.90;;;;;;5053153;28;20104;-66
2022/05/28 09:45:25;;;;;;;4.40;1.25;;;21.10;48.70;;;;;;5053065;28;20021;-73
2022/05/28 09:47:53;;;;;;;3.83;1.00;;;21.70;51.40;;;;;;5052843;28;20120;-66
2022/05/28 09:50:28;;;;;;;5.43;1.67;;;21.40;50.70;;;;;;5055242;28;20075;-67
2022/05/28 09:55:57;;;;;;;4.72;1.42;;;20.50;52.50;;;;;;5053693;28;20044;-67
2022/05/28 09:58:28;;;;;;;5.55;1.30;;;19.90;54.90;;;;;;5051576;28;20029;-65
2022/05/28 10:01:04;;;;;;;3.92;1.23;;;20.00;54.60;;;;;;5055536;28;20025;-66
2022/05/28 10:06:18;;;;;;;5.55;1.35;;;19.50;55.80;;;;;;5053042;28;20089;-65
2022/05/28 10:08:44;;;;;;;6.60;1.80;;;19.50;55.90;;;;;;5055440;28;20052;-66
2022/05/28 10:11:15;;;;;;;3.42;1.13;;;18.80;56.30;;;;;;5053520;28;20119;-65
2022/05/28 10:13:47;;;;;;;6.38;1.60;;;18.40;57.80;;;;;;5055520;28;20029;-65
2022/05/28 10:16:17;;;;;;;5.43;1.45;;;18.30;58.80;;;;;;5053222;28;20029;-66
2022/05/28 10:18:55;;;;;;;7.88;1.65;;;18.70;58.60;;;;;;5055203;28;20051;-65
2022/05/28 10:21:39;;;;;;;5.75;0.98;;;19.20;55.50;;;;;;5055460;28;20077;-64
2022/05/28 10:24:14;;;;;;;4.50;1.15;;;19.60;55.20;;;;;;5054745;28;20409;-65
2022/05/28 10:26:50;;;;;;;4.45;0.93;;;20.30;52.60;;;;;;5052768;28;20029;-65
2022/05/28 10:29:19;;;;;;;5.35;1.20;;;21.40;53.30;;;;;;5054220;28;20045;-65
2022/05/28 10:31:49;;;;;;;5.45;1.00;;;21.80;52.40;;;;;;5046811;28;20410;-65
2022/05/28 10:34:34;;;;;;;6.68;1.38;;;21.20;52.20;;;;;;5052063;28;20024;-67
2022/05/28 10:37:09;;;;;;;5.38;1.38;;;19.90;54.50;;;;;;5050739;28;20196;-66
2022/05/28 10:39:37;;;;;;;7.32;1.33;;;19.00;57.40;;;;;;5050659;28;20472;-67
2022/05/28 10:42:10;;;;;;;6.18;1.30;;;18.70;57.30;;;;;;5052131;28;20093;-66
2022/05/28 10:44:38;;;;;;;5.68;1.30;;;18.50;57.10;;;;;;5054705;28;20029;-66
2022/05/28 10:47:11;;;;;;;5.25;1.50;;;18.90;58.20;;;;;;5058557;28;20029;-67
2022/05/28 10:49:52;;;;;;;6.55;1.30;;;18.90;56.00;;;;;;5038754;28;20022;-65
2022/05/28 10:52:55;;;;;;;5.28;1.20;;;19.00;56.50;;;;;;5053190;28;20017;-66
2022/05/28 10:55:44;;;;;;;3.70;1.10;;;20.30;54.70;;;;;;5056199;28;20106;-67
2022/05/28 10:58:31;;;;;;;6.80;1.38;;;21.30;53.90;;;;;;5045198;28;20059;-66
2022/05/28 11:01:07;;;;;;;4.95;0.95;;;21.80;52.60;;;;;;5058025;28;20029;-65
2022/05/28 11:03:52;;;;;;;5.47;1.38;;;20.70;53.30;;;;;;5054979;28;20025;-65
2022/05/28 11:06:41;;;;;;;5.80;1.70;;;19.40;56.70;;;;;;5056358;28;20060;-66
2022/05/28 11:09:26;;;;;;;5.85;1.38;;;18.90;57.10;;;;;;5057487;28;20027;-67
2022/05/28 11:12:13;;;;;;;3.45;1.00;;;19.20;56.90;;;;;;5050443;28;20100;-66
2022/05/28 11:14:41;;;;;;;4.40;1.00;;;19.80;56.40;;;;;;5056396;28;20025;-66
2022/05/28 11:17:38;;;;;;;5.22;1.40;;;19.70;57.60;;;;;;5055980;28;20101;-66
2022/05/28 11:20:30;;;;;;;4.80;1.15;;;19.60;55.60;;;;;;5057089;28;20029;-67
2022/05/28 11:23:44;;;;;;;7.78;1.20;;;19.70;57.00;;;;;;5057683;28;20029;-66
2022/05/28 11:26:35;;;;;;;4.53;1.23;;;19.90;56.50;;;;;;5005118;28;20088;-65
2022/05/28 11:29:17;;;;;;;4.70;1.00;;;20.20;55.40;;;;;;5056912;28;20329;-66
2022/05/28 11:32:23;;;;;;;5.40;1.40;;;19.50;55.20;;;;;;5056156;28;20112;-66
2022/05/28 11:35:01;;;;;;;5.38;1.20;;;19.10;55.90;;;;;;5039578;28;20037;-65
2022/05/28 11:37:38;;;;;;;5.00;1.20;;;18.60;57.60;;;;;;5056236;28;20045;-65
2022/05/28 11:40:07;;;;;;;4.55;1.20;;;18.20;59.70;;;;;;5056124;28;20032;-65
2022/05/28 11:42:44;;;;;;;6.57;1.30;;;18.20;58.50;;;;;;5056445;28;20075;-65
2022/05/28 11:45:20;;;;;;;3.80;1.42;;;18.00;57.70;;;;;;5055423;28;20017;-68
2022/05/28 11:47:53;;;;;;;10.63;2.10;;;17.30;59.10;;;;;;5052487;28;20032;-66
2022/05/28 11:53:32;;;;;;;4.68;1.10;;;18.10;57.90;;;;;;5054495;28;20036;-65
2022/05/28 11:56:22;;;;;;;6.32;1.42;;;18.70;56.60;;;;;;5055584;28;20029;-65
2022/05/28 11:59:06;;;;;;;4.13;1.38;;;18.30;57.50;;;;;;5050311;28;20021;-65
2022/05/28 12:01:46;;;;;;;;;;;18.30;58.00;;;;;;5041157;28;20052;-66
2022/05/28 12:04:12;;;;;;;6.10;1.40;;;17.90;57.40;;;;;;5055400;28;19909;-65
2022/05/28 12:06:46;;;;;;;6.60;1.50;;;17.20;59.30;;;;;;5055513;28;20029;-65
2022/05/28 12:09:25;;;;;;;6.72;1.40;;;17.40;59.40;;;;;;5056763;28;20021;-65
2022/05/28 12:12:10;;;;;;;6.82;1.77;;;17.40;59.30;;;;;;5053339;28;20047;-66
2022/05/28 12:14:39;;;;;;;3.97;1.30;;;17.50;59.90;;;;;;5054606;28;20033;-67
2022/05/28 12:17:11;;;;;;;4.53;1.25;;;17.60;59.00;;;;;;5056463;28;20029;-66
2022/05/28 12:19:50;;;;;;;5.10;1.30;;;18.20;59.50;;;;;;5056263;28;20468;-66
2022/05/28 12:22:33;;;;;;;4.63;1.20;;;19.30;58.20;;;;;;5053421;28;20071;-66
2022/05/28 12:25:16;;;;;;;6.13;1.40;;;19.30;56.40;;;;;;5053232;28;20083;-67
2022/05/28 12:27:49;;;;;;;6.97;1.40;;;19.60;56.40;;;;;;5055066;28;20025;-65
2022/05/28 12:30:41;;;;;;;4.28;1.30;;;19.90;55.50;;;;;;5054259;28;20283;-65
2022/05/28 12:33:31;;;;;;;3.38;1.10;;;20.10;55.60;;;;;;5053145;28;20052;-66
2022/05/28 12:36:19;;;;;;;5.65;1.50;;;20.50;53.80;;;;;;5054899;28;20116;-66
2022/05/28 12:38:48;;;;;;;6.57;1.63;;;20.80;54.80;;;;;;5051609;28;20433;-66
2022/05/28 12:41:27;;;;;;;5.18;1.10;;;20.50;54.50;;;;;;5053412;28;20020;-66
2022/05/28 12:44:16;;;;;;;7.55;1.67;;;20.00;56.00;;;;;;5045651;28;20441;-65
2022/05/28 12:46:49;;;;;;;5.50;1.45;;;19.50;57.00;;;;;;5040918;28;20021;-67
2022/05/28 12:49:28;;;;;;;7.65;1.40;;;18.80;58.30;;;;;;5055728;28;20056;-66
2022/05/28 12:52:22;;;;;;;6.75;1.63;;;18.30;60.20;;;;;;5054610;28;20028;-66
2022/05/28 12:54:59;;;;;;;6.45;1.45;;;19.30;57.90;;;;;;5056131;28;20033;-64
2022/05/28 12:57:25;;;;;;;5.60;1.33;;;19.20;58.00;;;;;;5055275;28;20031;-67
2022/05/28 13:00:07;;;;;;;5.50;1.38;;;20.10;60.50;;;;;;5054893;28;20384;-67
2022/05/28 13:02:41;;;;;;;7.38;1.50;;;20.70;56.30;;;;;;5054143;28;20413;-65
2022/05/28 13:05:14;;;;;;;4.95;1.55;;;21.00;56.40;;;;;;5055480;28;20496;-66
2022/05/28 13:07:40;;;;;;;5.70;1.65;;;21.10;53.60;;;;;;5054281;28;20037;-67
2022/05/28 13:10:14;;;;;;;7.07;1.30;;;20.30;55.90;;;;;;5052241;28;20035;-67
2022/05/28 13:12:53;;;;;;;7.65;1.98;;;19.30;54.90;;;;;;5052499;28;20029;-65
2022/05/28 13:15:56;;;;;;;5.05;1.15;;;18.80;57.90;;;;;;5055729;28;20025;-67
2022/05/28 13:18:45;;;;;;;5.80;1.60;;;19.30;57.10;;;;;;5054490;28;20063;-67
2022/05/28 13:21:34;;;;;;;3.10;1.15;;;19.80;55.90;;;;;;5052759;28;20021;-66
2022/05/28 13:24:21;;;;;;;7.05;1.63;;;19.40;55.90;;;;;;5034429;28;20041;-67
2022/05/28 13:27:23;;;;;;;4.88;1.60;;;19.00;57.10;;;;;;5054147;28;20112;-66